Time;durP1;ratioP1;P1;durP2;ratioP2;P2;SDS_P1;SDS_P2;PMS_P1;PMS_P2;Temp;Humidity;BMP_temperature;BMP_pressure;BME280_temperature;BME280_humidity;BME280_pressure;Samples;Min_cycle;Max_cycle;Signal;HPM_P1;HPM_P2
2021/04/28 00:01:03;;;;;;;10.05;6.93;;;;;;;7.44;66.22;99449.78;6257636;22;20003;-76
2021/04/28 00:03:28;;;;;;;14.02;7.70;;;;;;;7.39;66.62;99445.97;6258527;22;20011;-76
2021/04/28 00:05:53;;;;;;;12.15;7.13;;;;;;;7.36;66.16;99443.81;6284071;22;20057;-76
2021/04/28 00:08:19;;;;;;;12.02;7.25;;;;;;;7.32;66.30;99433.66;6258212;22;20007;-76
2021/04/28 00:10:44;;;;;;;12.48;7.13;;;;;;;7.30;66.28;99439.50;6284509;22;20003;-76
2021/04/28 00:13:12;;;;;;;11.40;7.65;;;;;;;7.26;66.14;99441.19;6283834;22;20015;-75
2021/04/28 00:15:38;;;;;;;13.90;7.53;;;;;;;7.26;66.35;99443.13;6284360;22;19995;-75
2021/04/28 00:18:04;;;;;;;11.02;7.15;;;;;;;7.20;66.38;99434.09;6311209;22;20007;-75
2021/04/28 00:20:36;;;;;;;13.95;7.57;;;;;;;7.16;66.73;99435.84;6283434;22;20016;-76
2021/04/28 00:23:02;;;;;;;11.55;7.80;;;;;;;7.14;66.85;99427.03;6310019;22;20011;-76
2021/04/28 00:25:27;;;;;;;14.38;7.60;;;;;;;7.08;66.69;99430.97;6284053;22;20014;-76
2021/04/28 00:27:53;;;;;;;12.10;7.45;;;;;;;7.07;66.53;99418.28;6283693;22;20004;-75
2021/04/28 00:30:19;;;;;;;18.00;8.07;;;;;;;7.03;66.71;99417.25;6284194;22;20007;-75
2021/04/28 00:32:44;;;;;;;10.80;7.43;;;;;;;6.99;67.00;99421.69;6257848;22;20018;-76
2021/04/28 00:35:13;;;;;;;14.80;8.27;;;;;;;6.96;67.29;99422.28;6283550;22;19996;-76
2021/04/28 00:37:39;;;;;;;13.98;7.75;;;;;;;6.92;66.97;99422.06;6311136;22;20562;-75
2021/04/28 00:40:15;;;;;;;13.60;8.43;;;;;;;6.90;66.92;99411.31;6308230;22;20007;-76
2021/04/28 00:42:41;;;;;;;14.82;7.88;;;;;;;6.90;66.94;99410.50;6260002;22;20027;-76
2021/04/28 00:45:07;;;;;;;14.68;7.93;;;;;;;6.88;66.87;99408.06;6283953;22;20012;-75
2021/04/28 00:47:33;;;;;;;15.00;8.10;;;;;;;6.85;67.37;99403.13;6309546;22;20014;-76
2021/04/28 00:49:58;;;;;;;14.38;8.00;;;;;;;6.82;67.50;99409.22;6284181;22;20017;-76
2021/04/28 00:52:24;;;;;;;12.35;8.05;;;;;;;6.80;67.35;99400.44;6308964;22;20003;-75
2021/04/28 00:54:49;;;;;;;12.57;8.95;;;;;;;6.79;67.29;99398.75;6283673;22;20007;-76
2021/04/28 00:57:15;;;;;;;11.10;7.45;;;;;;;6.74;67.39;99404.34;6258244;22;20499;-76
2021/04/28 00:59:40;;;;;;;15.05;7.80;;;;;;;6.71;67.37;99404.94;6308977;22;20011;-76
2021/04/28 01:02:06;;;;;;;13.45;8.20;;;;;;;6.71;67.23;99396.66;6309270;22;20007;-75
2021/04/28 01:04:31;;;;;;;14.80;8.50;;;;;;;6.69;67.58;99396.16;6308695;22;20010;-76
2021/04/28 01:06:57;;;;;;;13.27;8.52;;;;;;;6.66;67.44;99391.22;6309320;22;20485;-76
2021/04/28 01:09:22;;;;;;;13.25;7.88;;;;;;;6.64;67.56;99404.50;6283734;22;20010;-76
2021/04/28 01:11:48;;;;;;;13.43;8.00;;;;;;;6.60;67.52;99393.25;6283143;22;20014;-76
2021/04/28 01:14:13;;;;;;;15.80;8.38;;;;;;;6.57;67.72;99392.97;6258190;22;20008;-75
2021/04/28 01:16:39;;;;;;;13.65;8.00;;;;;;;6.56;67.46;99392.16;6309243;22;20008;-75
2021/04/28 01:19:05;;;;;;;12.73;8.43;;;;;;;6.53;67.44;99383.66;6310148;22;20018;-75
2021/04/28 01:21:30;;;;;;;14.05;8.35;;;;;;;6.55;67.84;99376.75;6309252;22;20471;-76
2021/04/28 01:23:56;;;;;;;15.48;8.93;;;;;;;6.49;67.66;99375.97;6309263;22;20062;-76
2021/04/28 01:26:24;;;;;;;12.27;8.60;;;;;;;6.41;67.80;99373.88;6310340;22;20011;-75
2021/04/28 01:28:50;;;;;;;13.77;8.30;;;;;;;6.44;67.52;99367.78;6309301;22;20010;-75
2021/04/28 01:31:15;;;;;;;12.90;8.30;;;;;;;6.43;67.62;99366.09;6310790;22;20011;-75
2021/04/28 01:33:50;;;;;;;13.25;8.73;;;;;;;6.43;67.46;99368.88;6309539;22;20054;-76
2021/04/28 01:36:16;;;;;;;14.13;9.05;;;;;;;6.35;67.56;99366.78;6309488;22;20056;-75
2021/04/28 01:38:43;;;;;;;13.27;8.80;;;;;;;6.31;67.65;99367.66;6308782;22;20003;-76
2021/04/28 01:41:08;;;;;;;13.85;8.48;;;;;;;6.28;67.95;99363.53;6257302;22;20471;-75
2021/04/28 01:43:35;;;;;;;15.13;8.60;;;;;;;6.25;67.82;99364.13;6309157;22;20038;-76
2021/04/28 01:46:00;;;;;;;13.13;8.55;;;;;;;6.21;67.98;99371.34;6282999;22;20010;-75
2021/04/28 01:48:26;;;;;;;15.23;8.85;;;;;;;6.22;67.81;99370.25;6257936;22;20604;-75
2021/04/28 01:50:52;;;;;;;14.75;8.45;;;;;;;6.17;67.62;99367.53;6282908;22;20034;-76
2021/04/28 01:53:18;;;;;;;15.70;9.02;;;;;;;6.14;67.80;99365.38;6283135;22;20090;-75
2021/04/28 01:55:44;;;;;;;12.85;8.48;;;;;;;6.11;67.94;99369.53;6309323;22;19999;-75
2021/04/28 01:58:10;;;;;;;14.93;9.10;;;;;;;6.11;67.86;99369.53;6282724;22;20098;-75
2021/04/28 02:00:35;;;;;;;18.73;9.52;;;;;;;6.08;67.91;99366.53;6283262;22;20072;-75
2021/04/28 02:03:01;;;;;;;13.68;8.65;;;;;;;6.12;67.77;99364.84;6282568;22;20018;-75
2021/04/28 02:05:26;;;;;;;13.85;8.57;;;;;;;6.03;67.97;99362.72;6308676;22;20004;-75
2021/04/28 02:07:52;;;;;;;15.45;9.15;;;;;;;5.99;67.84;99353.41;6309144;22;20007;-76
2021/04/28 02:10:17;;;;;;;15.63;8.60;;;;;;;5.98;68.27;99362.75;6309942;22;20011;-75
2021/04/28 02:12:43;;;;;;;15.07;9.02;;;;;;;5.96;68.34;99353.13;6310487;22;20416;-75
2021/04/28 02:15:10;;;;;;;14.65;8.93;;;;;;;5.91;68.06;99353.19;6310569;22;20000;-76
2021/04/28 02:17:37;;;;;;;13.23;9.02;;;;;;;5.89;68.09;99347.94;6310003;22;20007;-75
2021/04/28 02:20:04;;;;;;;18.35;9.70;;;;;;;5.91;68.00;99355.94;6285237;22;20015;-75
2021/04/28 02:22:30;;;;;;;14.40;8.38;;;;;;;5.87;68.17;99347.41;6285265;22;20011;-75
2021/04/28 02:24:55;;;;;;;18.00;9.20;;;;;;;5.88;67.94;99349.06;6310633;22;20058;-76
2021/04/28 02:27:21;;;;;;;15.38;8.68;;;;;;;5.83;68.16;99349.13;6311066;22;20007;-75
2021/04/28 02:29:46;;;;;;;13.20;8.98;;;;;;;5.77;68.30;99345.59;6310331;22;20011;-76
2021/04/28 02:32:12;;;;;;;14.77;8.25;;;;;;;5.76;68.17;99340.38;6311108;22;20051;-75
2021/04/28 02:34:37;;;;;;;14.32;9.02;;;;;;;5.79;68.17;99345.28;6312406;22;20004;-76
2021/04/28 02:37:03;;;;;;;11.77;8.52;;;;;;;5.73;68.15;99344.53;6285227;22;20011;-76
2021/04/28 02:39:38;;;;;;;14.98;8.52;;;;;;;5.77;68.14;99344.78;6310322;22;20018;-76
2021/04/28 02:42:04;;;;;;;12.27;8.35;;;;;;;5.68;68.22;99336.31;6310683;22;20014;-76
2021/04/28 02:44:31;;;;;;;13.77;8.73;;;;;;;5.67;67.99;99336.59;6310633;22;20045;-75
2021/04/28 02:46:56;;;;;;;11.90;8.00;;;;;;;5.64;68.12;99332.50;6285478;22;20011;-76
2021/04/28 02:49:22;;;;;;;13.32;9.02;;;;;;;5.65;68.13;99333.31;6310066;22;20424;-76
2021/04/28 02:51:48;;;;;;;11.10;7.82;;;;;;;5.57;68.41;99327.34;6285129;22;20007;-76
2021/04/28 02:54:13;;;;;;;12.70;8.48;;;;;;;5.54;68.45;99327.91;6260049;22;20062;-75
2021/04/28 02:56:39;;;;;;;14.85;9.65;;;;;;;5.52;68.37;99324.63;6310201;22;20057;-76
2021/04/28 02:59:04;;;;;;;14.65;8.93;;;;;;;5.57;68.53;99316.31;6259624;22;20007;-75
2021/04/28 03:01:30;;;;;;;13.77;8.98;;;;;;;5.49;68.49;99322.44;6284434;22;20424;-76
2021/04/28 03:03:55;;;;;;;14.32;8.90;;;;;;;5.56;68.49;99320.16;6284196;22;20015;-75
2021/04/28 03:06:21;;;;;;;15.73;9.07;;;;;;;5.49;68.55;99314.19;6284920;22;19999;-76
2021/04/28 03:08:46;;;;;;;14.98;9.35;;;;;;;5.46;68.47;99319.44;6311530;22;20089;-76
2021/04/28 03:11:13;;;;;;;13.30;9.05;;;;;;;5.48;68.38;99320.78;6259415;22;20443;-75
2021/04/28 03:13:40;;;;;;;14.15;8.88;;;;;;;5.41;68.40;99305.75;6259546;22;20010;-75
2021/04/28 03:16:06;;;;;;;13.80;9.43;;;;;;;5.41;68.62;99306.56;6284582;22;20324;-75
2021/04/28 03:18:31;;;;;;;15.73;9.65;;;;;;;5.39;68.79;99308.78;6312077;22;20007;-76
2021/04/28 03:20:56;;;;;;;15.27;9.45;;;;;;;5.42;68.48;99308.19;6310167;22;20041;-75
2021/04/28 03:23:22;;;;;;;18.50;10.50;;;;;;;5.34;69.12;99311.56;6284444;22;20499;-76
2021/04/28 03:25:47;;;;;;;15.50;9.18;;;;;;;5.34;68.89;99308.81;6310672;22;20011;-75
2021/04/28 03:28:13;;;;;;;14.30;9.43;;;;;;;5.28;68.98;99302.53;6284099;22;20003;-76
2021/04/28 03:30:39;;;;;;;15.25;9.23;;;;;;;5.29;68.91;99297.84;6259440;22;20007;-75
2021/04/28 03:33:04;;;;;;;14.10;8.88;;;;;;;5.29;69.04;99297.84;6284455;22;20037;-76
2021/04/28 03:35:30;;;;;;;12.05;8.43;;;;;;;5.26;68.92;99295.66;6309888;22;20023;-76
2021/04/28 03:37:55;;;;;;;16.20;9.85;;;;;;;5.27;68.77;99295.38;6310366;22;20007;-76
2021/04/28 03:40:21;;;;;;;13.52;9.68;;;;;;;5.25;68.80;99296.78;6283341;22;20011;-76
2021/04/28 03:42:46;;;;;;;14.77;8.90;;;;;;;5.22;68.85;99300.13;6284305;22;20034;-76
2021/04/28 03:45:12;;;;;;;14.07;9.40;;;;;;;5.22;69.09;99294.63;6284870;22;20298;-76
2021/04/28 03:47:38;;;;;;;17.23;9.23;;;;;;;5.19;69.01;99297.94;6309519;22;20010;-75
2021/04/28 03:50:04;;;;;;;14.05;9.80;;;;;;;5.17;69.09;99286.38;6311463;22;20033;-76
2021/04/28 03:52:30;;;;;;;13.73;9.52;;;;;;;5.17;69.12;99289.16;6310007;22;20034;-75
2021/04/28 03:54:55;;;;;;;13.55;9.93;;;;;;;5.12;69.13;99288.06;6311104;22;20014;-76
2021/04/28 03:57:21;;;;;;;16.83;9.65;;;;;;;5.10;68.96;99290.31;6336720;22;20018;-76
2021/04/28 03:59:46;;;;;;;15.93;10.15;;;;;;;5.10;69.12;99284.78;6283938;22;20007;-75
2021/04/28 04:02:12;;;;;;;16.77;10.48;;;;;;;5.09;69.16;99285.88;6309467;22;20014;-75
2021/04/28 04:04:38;;;;;;;16.77;10.80;;;;;;;5.06;69.32;99283.72;6284063;22;20019;-75
2021/04/28 04:07:03;;;;;;;15.52;9.98;;;;;;;5.04;69.18;99288.72;6309337;22;20011;-76
2021/04/28 04:09:29;;;;;;;16.67;10.80;;;;;;;4.99;69.37;99294.25;6311486;22;20007;-75
2021/04/28 04:11:54;;;;;;;14.82;10.05;;;;;;;4.98;69.59;99292.59;6311347;22;20432;-75
2021/04/28 04:14:20;;;;;;;17.83;10.40;;;;;;;4.99;69.31;99287.94;6311176;22;20018;-75
2021/04/28 04:16:45;;;;;;;15.65;10.15;;;;;;;4.96;69.32;99294.81;6310090;22;20011;-76
2021/04/28 04:19:11;;;;;;;15.07;10.38;;;;;;;4.94;69.30;99294.28;6283300;22;20007;-75
2021/04/28 04:21:37;;;;;;;14.98;10.55;;;;;;;4.95;69.15;99298.66;6309492;22;20007;-75
2021/04/28 04:24:03;;;;;;;15.13;9.90;;;;;;;4.90;69.25;99293.19;6310071;22;20003;-76
2021/04/28 04:26:28;;;;;;;16.88;10.68;;;;;;;4.90;69.18;99291.28;6309365;22;20447;-76
2021/04/28 04:28:54;;;;;;;20.23;11.70;;;;;;;4.89;69.27;99288.81;6309448;22;20011;-76
2021/04/28 04:31:19;;;;;;;19.08;11.10;;;;;;;4.84;69.42;99291.59;6309820;22;20011;-75
2021/04/28 04:33:44;;;;;;;19.02;10.68;;;;;;;4.81;69.57;99289.41;6257769;22;20362;-75
2021/04/28 04:36:10;;;;;;;16.60;11.15;;;;;;;4.83;69.43;99290.78;6283811;22;20424;-76
2021/04/28 04:38:35;;;;;;;16.25;10.88;;;;;;;4.82;69.35;99289.13;6310879;22;20018;-76
2021/04/28 04:41:01;;;;;;;17.45;10.73;;;;;;;4.79;69.55;99289.72;6308270;22;20007;-75
2021/04/28 04:43:26;;;;;;;17.88;10.60;;;;;;;4.80;69.76;99285.84;6258444;22;20432;-76
2021/04/28 04:45:52;;;;;;;15.30;10.25;;;;;;;4.84;69.41;99292.41;6309083;22;20065;-75
2021/04/28 04:48:17;;;;;;;16.92;11.10;;;;;;;4.79;69.68;99284.22;6283549;22;20007;-75
2021/04/28 04:50:43;;;;;;;16.73;10.80;;;;;;;4.81;69.66;99289.41;6309853;22;20013;-75
2021/04/28 04:53:09;;;;;;;17.20;10.95;;;;;;;4.82;69.75;99283.63;6310311;22;20057;-75
2021/04/28 04:55:35;;;;;;;17.17;11.00;;;;;;;4.81;69.83;99292.16;6310695;22;20024;-75
2021/04/28 04:58:00;;;;;;;16.15;10.75;;;;;;;4.82;69.74;99289.13;6310795;22;20007;-75
2021/04/28 05:00:26;;;;;;;17.52;11.15;;;;;;;4.81;69.74;99283.91;6310507;22;20432;-76
2021/04/28 05:02:51;;;;;;;15.90;10.98;;;;;;;4.83;69.67;99289.97;6309348;22;20427;-75
2021/04/28 05:05:17;;;;;;;18.00;10.90;;;;;;;4.81;69.81;99292.97;6308628;22;20003;-75
2021/04/28 05:07:42;;;;;;;17.33;10.82;;;;;;;4.82;69.98;99286.38;6309316;22;20008;-75
2021/04/28 05:10:09;;;;;;;17.50;10.73;;;;;;;4.83;70.26;99285.28;6283390;22;20007;-76
2021/04/28 05:12:34;;;;;;;16.63;11.70;;;;;;;4.84;70.26;99286.91;6310517;22;20460;-75
2021/04/28 05:15:00;;;;;;;16.60;10.80;;;;;;;4.88;70.30;99287.19;6309406;22;20003;-75
2021/04/28 05:17:26;;;;;;;18.45;11.70;;;;;;;4.92;70.50;99278.03;6310575;22;20386;-76
2021/04/28 05:19:51;;;;;;;18.20;11.82;;;;;;;4.94;70.54;99280.53;6308708;22;20011;-75
2021/04/28 05:22:22;;;;;;;17.60;11.77;;;;;;;4.98;71.26;99283.50;6311090;22;20007;-76
2021/04/28 05:24:47;;;;;;;19.30;10.05;;;;;;;5.15;70.12;99281.16;6284220;22;20459;-76
2021/04/28 05:27:13;;;;;;;13.73;9.10;;;;;;;5.32;70.89;99283.50;6310950;22;20007;-76
2021/04/28 05:29:38;;;;;;;16.85;10.30;;;;;;;5.48;71.62;99287.75;6309207;22;20007;-76
2021/04/28 05:32:04;;;;;;;18.00;10.60;;;;;;;5.54;71.98;99283.00;6282752;22;20412;-75
2021/04/28 05:34:29;;;;;;;16.77;12.10;;;;;;;5.70;73.08;99289.19;6308934;22;20004;-75
2021/04/28 05:36:55;;;;;;;17.85;12.20;;;;;;;5.88;73.18;99285.69;6283341;22;20013;-75
2021/04/28 05:39:20;;;;;;;21.85;13.48;;;;;;;5.98;73.53;99277.31;6307845;22;20010;-75
2021/04/28 05:41:46;;;;;;;19.50;12.98;;;;;;;6.10;73.40;99287.09;6309335;22;20015;-76
2021/04/28 05:44:11;;;;;;;22.27;14.18;;;;;;;6.25;73.77;99286.94;6308916;22;20057;-76
2021/04/28 05:46:37;;;;;;;22.35;13.65;;;;;;;6.40;74.14;99278.44;6283183;22;20007;-77
2021/04/28 05:49:04;;;;;;;23.58;15.27;;;;;;;6.53;74.77;99281.59;6283260;22;20030;-76
2021/04/28 05:51:29;;;;;;;23.00;15.30;;;;;;;6.65;74.61;99269.00;6283013;22;20013;-76
2021/04/28 05:53:55;;;;;;;27.75;16.33;;;;;;;6.80;74.97;99280.91;6309193;22;20078;-76
2021/04/28 05:56:20;;;;;;;30.13;16.48;;;;;;;6.92;75.08;99278.53;6257690;22;20429;-77
2021/04/28 05:58:46;;;;;;;25.80;15.50;;;;;;;7.07;74.75;99274.72;6282723;22;20037;-76
2021/04/28 06:01:11;;;;;;;25.58;16.48;;;;;;;7.20;74.29;99282.22;6283258;22;20003;-76
2021/04/28 06:03:37;;;;;;;25.63;15.95;;;;;;;7.35;74.98;99284.75;6282877;22;20003;-79
2021/04/28 06:06:02;;;;;;;25.38;16.23;;;;;;;7.52;74.34;99277.81;6309112;22;20007;-77
2021/04/28 06:08:28;;;;;;;29.38;17.13;;;;;;;7.71;75.04;99284.06;6283353;22;20030;-76
2021/04/28 06:10:53;;;;;;;26.27;15.45;;;;;;;7.84;74.85;99280.53;6283202;22;20014;-77
2021/04/28 06:13:19;;;;;;;27.67;16.67;;;;;;;8.01;74.63;99279.91;6283865;22;20011;-77
2021/04/28 06:15:44;;;;;;;26.50;16.23;;;;;;;8.18;74.14;99271.00;6283860;22;20003;-77
2021/04/28 06:18:10;;;;;;;26.90;18.02;;;;;;;8.38;75.33;99278.03;6282794;22;20443;-77
2021/04/28 06:20:35;;;;;;;28.80;17.52;;;;;;;8.56;75.54;99281.03;6258410;22;20017;-78
2021/04/28 06:23:01;;;;;;;30.48;17.50;;;;;;;8.65;74.58;99279.97;6282530;22;20007;-80
2021/04/28 06:25:27;;;;;;;29.88;17.02;;;;;;;8.77;74.51;99276.66;6283227;22;20094;-79
2021/04/28 06:27:52;;;;;;;25.15;15.55;;;;;;;8.88;74.33;99275.28;6283418;22;20003;-80
2021/04/28 06:30:18;;;;;;;31.42;17.20;;;;;;;8.99;75.02;99270.31;6282560;22;20007;-77
2021/04/28 06:32:45;;;;;;;28.92;16.65;;;;;;;9.07;74.60;99275.13;6283087;22;20003;-79
2021/04/28 06:35:11;;;;;;;24.13;16.70;;;;;;;9.13;74.25;99282.16;6283653;22;20003;-78
2021/04/28 06:37:37;;;;;;;27.60;16.00;;;;;;;9.20;75.36;99278.16;6284582;22;20089;-78
2021/04/28 06:40:07;;;;;;;26.15;15.82;;;;;;;9.26;74.48;99274.13;6284280;22;20015;-78
2021/04/28 06:42:33;;;;;;;25.38;15.65;;;;;;;9.32;74.26;99273.66;6284297;22;20496;-74
2021/04/28 06:44:58;;;;;;;29.52;15.80;;;;;;;9.40;73.77;99278.44;6283147;22;20057;-73
2021/04/28 06:47:24;;;;;;;24.13;14.48;;;;;;;9.48;73.52;99276.88;6309059;22;20018;-75
2021/04/28 06:49:51;;;;;;;23.92;13.65;;;;;;;9.58;73.43;99286.88;6309758;22;20009;-76
2021/04/28 06:52:17;;;;;;;24.67;13.55;;;;;;;9.69;74.02;99285.47;6310658;22;20007;-76
2021/04/28 06:54:42;;;;;;;17.63;12.02;;;;;;;9.81;73.59;99276.56;6308447;22;20006;-76
2021/04/28 06:57:08;;;;;;;20.92;12.48;;;;;;;9.95;74.13;99282.03;6282821;22;20003;-76
2021/04/28 06:59:33;;;;;;;20.65;11.93;;;;;;;10.10;73.18;99289.91;6308916;22;20014;-75
2021/04/28 07:01:59;;;;;;;18.10;11.40;;;;;;;10.27;72.36;99278.88;6309741;22;20003;-76
2021/04/28 07:04:24;;;;;;;16.13;11.27;;;;;;;10.44;73.04;99282.84;6311807;22;20057;-76
2021/04/28 07:06:50;;;;;;;16.08;10.52;;;;;;;10.64;71.81;99284.19;6311950;22;20007;-76
2021/04/28 07:09:16;;;;;;;14.13;9.10;;;;;;;10.81;71.23;99277.81;6284412;22;20018;-76
2021/04/28 07:11:41;;;;;;;18.33;9.50;;;;;;;11.01;71.66;99293.06;6310835;22;20018;-76
2021/04/28 07:14:07;;;;;;;18.52;8.88;;;;;;;11.11;72.58;99279.63;6310324;22;20007;-76
2021/04/28 07:16:32;;;;;;;13.20;7.95;;;;;;;11.28;71.78;99284.38;6284293;22;20029;-76
2021/04/28 07:18:58;;;;;;;15.13;7.72;;;;;;;11.45;71.53;99279.94;6310747;22;20014;-76
2021/04/28 07:21:23;;;;;;;15.30;7.43;;;;;;;11.52;72.55;99281.06;6308915;22;20011;-76
2021/04/28 07:23:49;;;;;;;15.40;7.32;;;;;;;11.60;72.42;99282.19;6333758;22;20513;-76
2021/04/28 07:26:15;;;;;;;15.52;7.57;;;;;;;11.73;71.04;99283.97;6308934;22;20500;-77
2021/04/28 07:28:40;;;;;;;12.18;6.88;;;;;;;11.86;70.04;99287.72;6283098;22;20011;-77
2021/04/28 07:31:06;;;;;;;13.95;7.30;;;;;;;11.97;69.53;99282.59;6284231;22;20007;-76
2021/04/28 07:33:32;;;;;;;13.23;6.95;;;;;;;12.05;69.77;99284.53;6258012;22;20459;-76
2021/04/28 07:35:57;;;;;;;11.95;5.75;;;;;;;12.16;68.65;99280.22;6259023;22;19999;-76
2021/04/28 07:38:23;;;;;;;13.23;6.28;;;;;;;12.27;68.56;99280.66;6284956;22;20064;-76
2021/04/28 07:40:49;;;;;;;13.40;6.60;;;;;;;12.35;68.10;99281.78;6257555;22;20008;-76
2021/04/28 07:43:14;;;;;;;11.57;6.28;;;;;;;12.41;68.05;99280.44;6284721;22;20387;-76
2021/04/28 07:45:40;;;;;;;13.35;5.25;;;;;;;12.56;67.83;99277.06;6258938;22;20061;-76
2021/04/28 07:48:07;;;;;;;16.83;4.90;;;;;;;12.66;68.05;99276.66;6283869;22;20011;-76
2021/04/28 07:50:33;;;;;;;16.27;5.75;;;;;;;12.78;67.73;99283.47;6285327;22;20010;-76
2021/04/28 07:52:59;;;;;;;11.18;4.47;;;;;;;13.00;67.07;99271.19;6283914;22;20007;-76
2021/04/28 07:55:24;;;;;;;9.40;4.40;;;;;;;13.12;66.29;99277.66;6284641;22;20513;-76
2021/04/28 07:57:50;;;;;;;9.20;4.03;;;;;;;13.25;65.76;99270.13;6258919;22;20355;-76
2021/04/28 08:00:16;;;;;;;10.30;3.83;;;;;;;13.42;65.47;99271.97;6258084;22;20007;-76
2021/04/28 08:02:42;;;;;;;9.10;3.58;;;;;;;13.57;65.26;99270.53;6258555;22;20004;-77
2021/04/28 08:05:08;;;;;;;8.73;3.20;;;;;;;13.69;64.55;99275.31;6258652;22;20454;-76
2021/04/28 08:07:34;;;;;;;9.38;3.33;;;;;;;13.75;63.69;99269.16;6233575;22;20003;-76
2021/04/28 08:10:00;;;;;;;9.10;2.78;;;;;;;13.77;63.35;99268.84;6311831;22;20302;-77
2021/04/28 08:12:25;;;;;;;7.63;2.95;;;;;;;13.83;62.57;99278.59;6283709;22;20423;-76
2021/04/28 08:14:51;;;;;;;9.13;2.55;;;;;;;13.75;62.58;99269.16;6258068;22;20003;-76
2021/04/28 08:17:16;;;;;;;5.97;2.30;;;;;;;13.81;62.78;99278.94;6309889;22;20018;-76
2021/04/28 08:19:42;;;;;;;6.80;2.85;;;;;;;13.79;63.02;99272.06;6309139;22;20011;-77
2021/04/28 08:22:07;;;;;;;9.25;3.25;;;;;;;13.79;62.78;99272.06;6310118;22;20108;-77
2021/04/28 08:24:33;;;;;;;7.93;2.75;;;;;;;13.73;62.97;99279.03;6309519;22;20007;-77
2021/04/28 08:26:58;;;;;;;7.22;2.80;;;;;;;13.73;62.96;99279.03;6309619;22;20455;-77
2021/04/28 08:29:25;;;;;;;9.60;2.95;;;;;;;13.69;62.96;99283.69;6284241;22;20340;-77
2021/04/28 08:31:51;;;;;;;12.73;3.92;;;;;;;13.68;63.17;99282.03;6311041;22;20007;-76
2021/04/28 08:34:17;;;;;;;9.60;4.03;;;;;;;13.57;63.71;99285.28;6309422;22;20014;-77
2021/04/28 08:36:42;;;;;;;6.80;3.10;;;;;;;13.57;63.55;99281.69;6284296;22;20007;-77
2021/04/28 08:39:08;;;;;;;9.98;3.50;;;;;;;13.57;63.18;99287.25;6282489;22;20014;-77
2021/04/28 08:41:35;;;;;;;7.35;3.03;;;;;;;13.51;62.82;99288.63;6309747;22;20018;-76
2021/04/28 08:44:03;;;;;;;7.60;2.50;;;;;;;13.46;62.43;99295.25;6283657;22;20007;-76
2021/04/28 08:46:28;;;;;;;5.07;2.10;;;;;;;13.38;61.71;99296.13;6310744;22;20014;-76
2021/04/28 08:48:54;;;;;;;3.50;1.85;;;;;;;13.30;61.81;99300.63;6311397;22;20008;-76
2021/04/28 08:51:19;;;;;;;4.53;2.00;;;;;;;13.26;61.88;99298.84;6310537;22;20007;-76
2021/04/28 08:53:45;;;;;;;4.55;1.85;;;;;;;13.15;62.00;99307.63;6283647;22;20432;-77
2021/04/28 08:56:10;;;;;;;6.88;2.20;;;;;;;13.15;62.08;99307.63;6283763;22;20010;-77
2021/04/28 08:58:38;;;;;;;4.07;2.20;;;;;;;13.19;62.20;99299.38;6310439;22;20020;-77
2021/04/28 09:01:04;;;;;;;8.30;2.35;;;;;;;13.25;62.12;99303.59;6310942;22;20530;-76
2021/04/28 09:03:42;;;;;;;7.95;2.03;;;;;;;13.33;61.67;99299.94;6232212;22;20431;-76
2021/04/28 09:06:27;;;;;;;7.88;2.33;;;;;;;13.53;60.77;99297.47;6310482;22;20011;-77
2021/04/28 09:08:52;;;;;;;8.88;2.70;;;;;;;13.68;60.63;99296.00;6309687;22;20029;-77
2021/04/28 09:11:36;;;;;;;4.93;1.90;;;;;;;13.83;60.61;99289.75;6283659;22;20370;-77
2021/04/28 09:14:20;;;;;;;5.35;1.58;;;;;;;13.99;60.28;99293.53;6310524;22;20011;-77
2021/04/28 09:16:55;;;;;;;4.57;2.00;;;;;;;14.15;59.77;99290.03;6309865;22;20010;-77
2021/04/28 09:20:14;;;;;;;4.28;1.83;;;;;;;14.30;59.40;99287.38;6310219;22;20011;-77
2021/04/28 09:22:18;;;;;;;6.72;1.90;;;;;;;14.46;58.61;99295.06;6287590;22;20011;-77
2021/04/28 09:24:51;;;;;;;5.55;1.75;;;;;;;14.64;57.01;99296.47;6234564;22;20025;-77
2021/04/28 09:27:36;;;;;;;6.75;1.50;;;;;;;14.81;56.63;99295.41;6310711;22;20035;-77
2021/04/28 09:30:06;;;;;;;4.78;1.70;;;;;;;14.95;56.47;99290.25;6308700;22;20447;-77
2021/04/28 09:32:33;;;;;;;5.70;1.35;;;;;;;15.12;56.12;99288.34;6308824;22;20004;-78
2021/04/28 09:35:18;;;;;;;7.32;1.70;;;;;;;15.31;56.12;99290.50;6283339;22;20459;-77
2021/04/28 09:37:53;;;;;;;4.50;1.63;;;;;;;15.48;56.14;99289.38;6308843;22;20019;-77
2021/04/28 09:40:19;;;;;;;4.88;1.45;;;;;;;15.67;55.81;99297.91;6309350;22;20014;-78
2021/04/28 09:42:56;;;;;;;5.35;2.30;;;;;;;15.82;55.38;99288.78;6311355;22;20007;-77
2021/04/28 09:45:44;;;;;;;4.70;2.10;;;;;;;16.07;54.90;99288.59;6258370;22;20094;-77
2021/04/28 09:48:11;;;;;;;6.20;2.40;;;;;;;16.28;53.20;99288.34;6309703;22;20011;-77
2021/04/28 09:50:37;;;;;;;6.47;2.10;;;;;;;16.42;53.35;99287.88;6309327;22;20643;-78
2021/04/28 09:53:02;;;;;;;4.78;2.00;;;;;;;16.56;53.31;99290.22;6308964;22;20031;-77
2021/04/28 09:55:28;;;;;;;8.85;1.70;;;;;;;16.69;53.45;99291.75;6308728;22;20424;-78
2021/04/28 09:57:54;;;;;;;2.92;1.42;;;;;;;16.84;52.94;99284.50;6309797;22;20060;-78
2021/04/28 10:00:24;;;;;;;8.48;2.17;;;;;;;17.01;52.17;99286.88;6308318;22;20003;-78
2021/04/28 10:03:07;;;;;;;7.18;2.45;;;;;;;17.17;51.37;99278.41;6308277;22;20025;-78
2021/04/28 10:05:35;;;;;;;7.07;2.00;;;;;;;17.33;51.53;99281.97;6310721;22;20007;-77
2021/04/28 10:08:10;;;;;;;7.05;2.20;;;;;;;17.49;51.47;99284.66;6308165;22;20086;-77
2021/04/28 10:10:35;;;;;;;5.07;1.70;;;;;;;17.60;51.47;99291.31;6309197;22;20124;-78
2021/04/28 10:13:02;;;;;;;5.53;1.73;;;;;;;17.67;49.84;99290.66;6308867;22;20011;-77
2021/04/28 10:15:27;;;;;;;6.25;1.85;;;;;;;17.71;49.39;99290.72;6310019;22;20004;-78
2021/04/28 10:17:53;;;;;;;4.90;1.52;;;;;;;17.75;47.75;99286.00;6310206;22;20011;-78
2021/04/28 10:20:18;;;;;;;2.95;1.20;;;;;;;17.85;47.37;99277.78;6310120;22;20054;-78
2021/04/28 10:22:44;;;;;;;3.03;0.90;;;;;;;17.85;45.51;99276.97;6283209;22;20008;-78
2021/04/28 10:25:10;;;;;;;3.05;1.00;;;;;;;18.01;46.54;99276.84;6309235;22;20029;-78
2021/04/28 10:27:37;;;;;;;3.72;1.23;;;;;;;18.08;46.41;99277.81;6282852;22;20417;-79
2021/04/28 10:30:02;;;;;;;5.97;1.10;;;;;;;18.15;46.06;99279.09;6283100;22;20010;-79
2021/04/28 10:32:28;;;;;;;3.67;1.00;;;;;;;18.14;46.26;99271.88;6308841;22;20003;-79
2021/04/28 10:35:08;;;;;;;2.55;0.98;;;;;;;18.26;46.81;99272.47;6283024;22;20442;-79
2021/04/28 10:37:35;;;;;;;3.70;1.38;;;;;;;18.24;46.10;99268.41;6310210;22;20416;-79
2021/04/28 10:40:01;;;;;;;2.97;1.08;;;;;;;18.36;46.40;99270.22;6309635;22;20010;-79
2021/04/28 10:42:36;;;;;;;2.67;0.93;;;;;;;18.46;47.23;99263.97;6310303;22;20011;-78
2021/04/28 10:45:03;;;;;;;4.18;1.20;;;;;;;18.57;46.43;99272.56;6312364;22;20018;-79
2021/04/28 10:47:52;;;;;;;5.40;1.33;;;;;;;18.66;46.67;99264.66;6311340;22;20026;-79
2021/04/28 10:50:22;;;;;;;5.97;1.50;;;;;;;18.77;46.73;99270.47;6311544;22;20011;-78
2021/04/28 10:53:02;;;;;;;4.32;1.42;;;;;;;18.80;45.76;99276.16;6312164;22;20007;-79
2021/04/28 10:55:57;;;;;;;4.60;1.55;;;;;;;18.84;46.82;99273.41;6309945;22;20003;-77
2021/04/28 10:58:26;;;;;;;4.13;1.10;;;;;;;18.80;45.21;99272.53;6312116;22;20025;-78
2021/04/28 11:01:04;;;;;;;4.50;1.20;;;;;;;18.90;46.20;99272.69;6311634;22;20007;-77
2021/04/28 11:03:30;;;;;;;2.65;1.30;;;;;;;18.96;45.03;99273.16;6311362;22;20056;-78
2021/04/28 11:05:58;;;;;;;3.72;1.30;;;;;;;19.04;44.33;99266.44;6312040;22;20011;-78
2021/04/28 11:08:30;;;;;;;3.08;1.02;;;;;;;19.12;42.88;99258.91;6310573;22;20496;-77
2021/04/28 11:10:56;;;;;;;5.85;1.40;;;;;;;18.93;41.85;99262.69;6311670;22;20007;-76
2021/04/28 11:13:22;;;;;;;2.80;0.90;;;;;;;19.21;42.98;99256.63;6310607;22;20086;-78
2021/04/28 11:15:54;;;;;;;5.25;0.90;;;;;;;19.40;44.33;99255.66;6312054;22;20006;-76
2021/04/28 11:18:26;;;;;;;2.63;1.25;;;;;;;19.65;44.01;99253.13;6309179;22;20012;-78
2021/04/28 11:21:17;;;;;;;2.67;0.68;;;;;;;19.85;42.78;99265.03;6312342;22;20018;-77
2021/04/28 11:24:11;;;;;;;4.35;1.05;;;;;;;20.03;42.30;99260.38;6284567;22;20004;-78
2021/04/28 11:26:48;;;;;;;3.83;0.90;;;;;;;20.17;42.33;99254.06;6310258;22;20439;-78
2021/04/28 11:29:14;;;;;;;2.45;0.80;;;;;;;20.29;41.89;99262.22;6259837;22;20007;-78
2021/04/28 11:31:42;;;;;;;3.92;0.85;;;;;;;20.41;40.97;99265.94;6310320;22;20372;-78